Calatayud, Spain
Current Conditions -  °F | °C
As of 11:00 PM on Saturday 25 Oct 2014 (Local Time) from LEZG Reporting Station
Clear Clear  
Wind Chill: 64°   Ceiling: Unl
Heat Index: 64°   Visibility: 6mi
Dew Point: 46°   Wind: 8mph
Humidity: 52%   Direction: 240°WSW
Pressure: 30.15"   Gusts: NA
Location:  41.35°N, 1.65°W
Report Text: LEZG 252100Z 24007KT CAVOK 18/08 Q1021
Loading
Personal Weather Stations






























Interactive Weather Map
Tropical Storm Tracking
New forecast layout! Learn more

10-Day Weather Forecast

Advertisements
Track Severe Weather on mobile